Terminal Aerodrome Forecast
Issued by NWS

Home | Current Version | Previous Version | Text Only | Print | Product List | Glossary On
Versions: 1 2 3 4 5 6 7 8 9 10 11 12 13
950
FTUS46 KPDT 030520
TAFRDM
TAF
KRDM 030520Z 0306/0406 16006KT P6SM OVC050
     FM031200 27006KT P6SM SCT050 BKN080
     FM032100 30007KT P6SM SCT080 BKN100
     FM040300 31007KT P6SM VCSH SCT040 OVC060=

USA.gov is the U.S. government's official web portal to all federal, state and local government web resources and services.